This is the latest recevied weather packets stored in our database for station/object OE5WWO. If no packets are shown the sender has not sent any weather packets the latest 10 day(s).
| Time | Temp. | Humidity | Pressure | Rain* | Wind** | Luminosity | Snow |
|---|---|---|---|---|---|---|---|
| 1777356955 | 10.56° C | 56% | 1019.3 hPa | 0 mm | - | - | - |
| 1777354839 | 10° C | 55% | 1019.3 hPa | 0 mm | - | - | - |
| 1777354251 | 10° C | 56% | 1019.3 hPa | 0 mm | - | - | - |
| 1777351551 | 8.33° C | 61% | 1018.8 hPa | 0 mm | - | - | - |
| 1777348539 | 8.33° C | 61% | 1018.7 hPa | 0 mm | - | - | - |
| 1777347638 | 8.89° C | 60% | 1018.8 hPa | 0 mm | - | - | - |
| 1777347341 | 8.89° C | 60% | 1018.8 hPa | 0 mm | - | - | - |
| 1777347050 | 8.89° C | 59% | 1018.8 hPa | 0 mm | - | - | - |
| 1777345539 | 9.44° C | 56% | 1018.8 hPa | 0 mm | - | - | - |
| 1777343738 | 11.11° C | 48% | 1018.8 hPa | 0 mm | - | - | - |
| 1777340136 | 11.11° C | 48% | 1018.8 hPa | 0 mm | - | - | - |
| 1777337437 | 11.67° C | 47% | 1018.6 hPa | 0 mm | - | - | - |
| 1777336259 | 11.67° C | 46% | 1018.7 hPa | 0 mm | - | - | - |
| 1777333841 | 11.67° C | 46% | 1018.9 hPa | 0 mm | - | - | - |
| 1777333555 | 11.67° C | 47% | 1018.8 hPa | 0 mm | - | - | - |
| 1777333240 | 11.67° C | 47% | 1018.7 hPa | 0 mm | - | - | - |
| 1777331751 | 11.11° C | 49% | 1018.7 hPa | 0 mm | - | - | - |
| 1777329337 | 11.67° C | 48% | 1018.8 hPa | 0 mm | - | - | - |
| 1777326940 | 12.22° C | 46% | 1018.7 hPa | 0 mm | - | - | - |
| 1777326638 | 12.22° C | 46% | 1018.7 hPa | 0 mm | - | - | - |
| 1777326354 | 12.22° C | 46% | 1018.7 hPa | 0 mm | - | - | - |
| 1777325453 | 12.22° C | 47% | 1018.8 hPa | 0 mm | - | - | - |
| 1777325137 | 12.22° C | 47% | 1018.8 hPa | 0 mm | - | - | - |
| 1777324838 | 12.22° C | 47% | 1018.7 hPa | 0 mm | - | - | - |
| 1777324572 | 12.22° C | 48% | 1018.8 hPa | 0 mm | - | - | - |
* Rain latest hour (hover to see other rain measurements)
** Current wind speed in m/s (hover to see current wind gust speed)